Time;durP1;ratioP1;P1;durP2;ratioP2;P2;SDS_P1;SDS_P2;PMS_P1;PMS_P2;Temp;Humidity;BMP_temperature;BMP_pressure;BME280_temperature;BME280_humidity;BME280_pressure;Samples;Min_cycle;Max_cycle;Signal;HPM_P1;HPM_P2
2022/07/18 00:01:31;;;;;;;4.45;2.88;;;;;;;17.46;56.45;102341.28;4738876;30;20040;-83
2022/07/18 00:03:57;;;;;;;11.50;3.45;;;;;;;17.36;58.20;102332.66;4724704;30;20052;-82
2022/07/18 00:06:22;;;;;;;8.25;3.33;;;;;;;17.31;57.18;102339.91;4770140;30;20130;-82
2022/07/18 00:08:48;;;;;;;6.05;3.20;;;;;;;17.23;58.30;102326.72;4724270;30;20024;-83
2022/07/18 00:11:13;;;;;;;12.90;3.30;;;;;;;17.17;58.65;102324.22;4753287;30;20043;-82
2022/07/18 00:13:39;;;;;;;8.68;3.80;;;;;;;17.15;58.62;102324.25;4724569;30;20036;-82
2022/07/18 00:16:05;;;;;;;8.50;2.97;;;;;;;17.11;57.54;102319.00;4769482;30;20430;-82
2022/07/18 00:18:30;;;;;;;8.30;3.25;;;;;;;17.09;57.36;102324.41;4735464;30;20474;-82
2022/07/18 00:20:56;;;;;;;10.40;3.20;;;;;;;17.07;57.19;102314.66;4738006;30;20122;-82
2022/07/18 00:23:21;;;;;;;9.73;3.45;;;;;;;17.04;56.90;102315.63;4735377;30;20126;-82
2022/07/18 00:25:47;;;;;;;9.88;3.13;;;;;;;17.04;57.92;102312.09;4723391;30;20035;-82
2022/07/18 00:28:13;;;;;;;7.60;3.40;;;;;;;17.04;57.21;102312.94;4723495;30;20082;-82
2022/07/18 00:30:39;;;;;;;6.38;3.38;;;;;;;16.97;58.50;102306.88;4744064;30;20043;-82
2022/07/18 00:33:05;;;;;;;8.90;3.60;;;;;;;16.92;58.86;102311.47;4750347;30;20040;-82
2022/07/18 00:35:30;;;;;;;5.47;3.25;;;;;;;16.90;57.14;102302.59;4752699;30;20047;-82
2022/07/18 00:37:56;;;;;;;6.55;3.22;;;;;;;16.90;58.44;102307.94;4752624;30;20041;-82
2022/07/18 00:40:21;;;;;;;7.78;3.33;;;;;;;16.91;58.21;102300.78;4736625;30;20039;-82
2022/07/18 00:42:47;;;;;;;5.70;3.15;;;;;;;16.85;58.40;102301.81;4718224;30;20115;-82
2022/07/18 00:45:13;;;;;;;8.27;3.13;;;;;;;16.82;57.93;102299.22;4738384;30;20397;-82
2022/07/18 00:47:38;;;;;;;6.65;3.55;;;;;;;16.81;58.21;102294.78;4737896;30;20194;-82
2022/07/18 00:50:06;;;;;;;9.80;3.63;;;;;;;16.76;59.22;102294.88;4737810;30;20043;-82
2022/07/18 00:52:33;;;;;;;9.73;3.20;;;;;;;16.68;58.61;102298.66;4737958;30;20044;-82
2022/07/18 00:54:58;;;;;;;6.45;3.42;;;;;;;16.59;59.54;102288.16;4752262;30;20047;-82
2022/07/18 00:57:24;;;;;;;7.63;3.28;;;;;;;16.58;58.19;102297.13;4720975;30;20046;-82
2022/07/18 01:02:34;;;;;;;6.90;3.40;;;;;;;16.49;58.15;102287.50;4758191;30;20058;-82
2022/07/18 01:05:00;;;;;;;12.63;3.72;;;;;;;16.44;60.14;102295.63;4752484;30;20036;-81
2022/07/18 01:07:25;;;;;;;7.47;3.30;;;;;;;16.39;59.62;102288.63;4737767;30;20578;-82
2022/07/18 01:09:51;;;;;;;7.07;3.50;;;;;;;16.35;58.25;102277.16;4737873;30;20043;-81
2022/07/18 01:12:16;;;;;;;9.80;3.60;;;;;;;16.29;59.27;102271.91;4752262;30;20048;-81
2022/07/18 01:14:42;;;;;;;8.77;3.53;;;;;;;16.29;58.93;102279.94;4737678;30;20058;-82
2022/07/18 01:17:16;;;;;;;7.95;3.50;;;;;;;16.28;58.71;102279.06;4752393;30;20035;-82
2022/07/18 01:19:42;;;;;;;8.88;3.17;;;;;;;16.24;59.43;102276.50;4752798;30;20044;-82
2022/07/18 01:22:08;;;;;;;6.10;3.80;;;;;;;16.20;59.85;102277.50;4737818;30;20042;-82
2022/07/18 01:24:34;;;;;;;6.05;3.60;;;;;;;16.18;59.22;102277.53;4737771;30;20036;-82
2022/07/18 01:27:02;;;;;;;4.78;3.05;;;;;;;16.12;60.14;102272.28;4737589;30;20135;-82
2022/07/18 01:29:28;;;;;;;7.95;3.70;;;;;;;16.13;60.38;102274.94;4745362;30;20040;-82
2022/07/18 01:31:53;;;;;;;7.50;3.50;;;;;;;16.06;60.19;102277.78;4750154;30;20477;-82
2022/07/18 01:34:22;;;;;;;7.30;3.15;;;;;;;16.01;60.33;102271.66;4737969;30;20059;-82
2022/07/18 01:36:48;;;;;;;7.70;3.88;;;;;;;15.96;60.45;102271.75;4717219;30;20515;-82
2022/07/18 01:39:13;;;;;;;6.78;3.70;;;;;;;15.93;60.40;102269.16;4742300;30;20127;-82
2022/07/18 01:41:40;;;;;;;8.82;3.42;;;;;;;15.91;60.07;102269.19;4749776;30;20035;-82
2022/07/18 01:44:06;;;;;;;6.53;3.60;;;;;;;15.89;60.64;102271.00;4738030;30;20071;-82
2022/07/18 01:46:32;;;;;;;7.72;3.60;;;;;;;15.88;59.61;102276.41;4737623;30;20105;-81
2022/07/18 01:48:58;;;;;;;8.00;3.92;;;;;;;15.82;59.76;102276.50;4752442;30;20043;-82
2022/07/18 01:51:23;;;;;;;6.93;3.42;;;;;;;15.78;60.12;102269.50;4728830;30;20040;-81
2022/07/18 01:53:59;;;;;;;8.18;3.97;;;;;;;15.73;59.54;102266.91;4747993;30;20024;-82
2022/07/18 01:56:25;;;;;;;7.80;3.55;;;;;;;15.71;60.39;102268.72;4731014;30;20079;-82
2022/07/18 01:58:50;;;;;;;9.57;3.45;;;;;;;15.71;59.87;102271.41;4768291;30;20044;-81
2022/07/18 02:01:17;;;;;;;14.85;3.70;;;;;;;15.63;60.29;102271.53;4713602;30;20068;-81
2022/07/18 02:03:42;;;;;;;7.72;3.70;;;;;;;15.65;60.41;102271.47;4719514;30;20052;-81
2022/07/18 02:06:08;;;;;;;6.90;3.38;;;;;;;15.66;60.40;102266.13;4754728;30;20074;-82
2022/07/18 02:08:34;;;;;;;8.95;3.80;;;;;;;15.60;60.74;102263.59;4740781;30;20422;-82
2022/07/18 02:10:59;;;;;;;6.07;3.75;;;;;;;15.58;59.84;102261.81;4737243;30;20466;-82
2022/07/18 02:13:25;;;;;;;7.75;3.60;;;;;;;15.59;61.40;102258.25;4733286;30;20142;-82
2022/07/18 02:15:50;;;;;;;7.15;3.70;;;;;;;15.52;60.87;102254.84;4740442;30;20131;-82
2022/07/18 02:18:16;;;;;;;7.82;3.50;;;;;;;15.48;61.85;102254.03;4755062;30;20086;-82
2022/07/18 02:20:42;;;;;;;7.85;3.22;;;;;;;15.44;61.46;102252.31;4719317;30;20424;-82
2022/07/18 02:23:08;;;;;;;7.00;3.40;;;;;;;15.43;61.38;102247.00;4744222;30;20023;-82
2022/07/18 02:25:34;;;;;;;7.07;3.60;;;;;;;15.40;61.87;102241.72;4755471;30;20043;-82
2022/07/18 02:28:00;;;;;;;9.32;3.33;;;;;;;15.34;61.90;102239.19;4734618;30;20083;-81
2022/07/18 02:30:25;;;;;;;5.55;3.35;;;;;;;15.33;61.27;102249.00;4748130;30;20426;-91
2022/07/18 02:32:51;;;;;;;6.68;3.50;;;;;;;15.31;62.91;102247.25;4740950;30;20035;-89
2022/07/18 02:35:16;;;;;;;7.80;3.60;;;;;;;15.27;61.58;102247.28;4737677;30;20050;-91
2022/07/18 02:37:42;;;;;;;9.50;3.95;;;;;;;15.27;63.63;102246.44;4745075;30;20067;-89
2022/07/18 02:40:10;;;;;;;7.38;3.25;;;;;;;15.23;63.81;102244.72;4740578;30;20030;-90
2022/07/18 02:42:36;;;;;;;9.15;3.50;;;;;;;15.19;63.45;102241.25;4746857;30;20035;-91
2022/07/18 02:45:04;;;;;;;8.50;3.80;;;;;;;15.17;63.90;102244.84;4724602;30;20036;-89
2022/07/18 02:47:30;;;;;;;6.72;3.45;;;;;;;15.17;62.10;102245.72;4748242;30;20409;-90
2022/07/18 02:49:55;;;;;;;10.77;3.65;;;;;;;15.14;63.12;102235.09;4745189;30;20052;-81
2022/07/18 02:52:21;;;;;;;11.45;4.28;;;;;;;15.15;62.23;102244.84;4749101;30;20063;-81
2022/07/18 02:54:46;;;;;;;6.82;3.60;;;;;;;15.16;62.17;102248.44;4739601;30;20499;-81
2022/07/18 02:57:12;;;;;;;10.38;4.20;;;;;;;15.14;62.78;102245.78;4754330;30;20048;-81
2022/07/18 02:59:38;;;;;;;11.15;4.22;;;;;;;15.13;62.72;102240.47;4754098;30;20256;-81
2022/07/18 03:02:03;;;;;;;6.60;3.78;;;;;;;15.13;62.12;102240.47;4770310;30;20342;-82
2022/07/18 03:04:29;;;;;;;6.57;4.07;;;;;;;15.08;63.00;102240.53;4754028;30;20401;-81
2022/07/18 03:06:55;;;;;;;9.05;4.40;;;;;;;15.05;63.43;102240.59;4754101;30;20416;-81
2022/07/18 03:09:20;;;;;;;10.02;4.15;;;;;;;15.07;62.60;102240.59;4708554;30;20059;-81
2022/07/18 03:11:46;;;;;;;8.88;4.03;;;;;;;15.07;63.55;102235.25;4724579;30;20464;-82
2022/07/18 03:14:12;;;;;;;8.80;3.65;;;;;;;15.04;63.91;102228.19;4770635;30;20394;-83
2022/07/18 03:16:37;;;;;;;10.10;3.70;;;;;;;15.01;65.18;102221.13;4753461;30;20040;-81
2022/07/18 03:19:03;;;;;;;6.75;3.50;;;;;;;14.97;64.17;102219.41;4739390;30;20039;-81
2022/07/18 03:21:29;;;;;;;6.22;3.70;;;;;;;14.94;64.06;102223.94;4754327;30;20034;-82
2022/07/18 03:23:55;;;;;;;5.55;3.60;;;;;;;14.86;65.97;102215.16;4753917;30;20079;-81
2022/07/18 03:26:21;;;;;;;6.57;3.90;;;;;;;14.85;64.95;102214.28;4739415;30;20062;-81
2022/07/18 03:28:46;;;;;;;6.18;3.55;;;;;;;14.84;64.90;102218.75;4739065;30;20087;-81
2022/07/18 03:31:12;;;;;;;9.90;3.83;;;;;;;14.82;64.59;102217.03;4724356;30;20115;-81
2022/07/18 03:33:38;;;;;;;10.55;3.97;;;;;;;14.80;65.49;102211.69;4724459;30;20032;-81
2022/07/18 03:36:05;;;;;;;11.85;4.20;;;;;;;14.78;65.11;102216.19;4744257;30;20044;-81
2022/07/18 03:38:31;;;;;;;6.00;3.80;;;;;;;14.76;64.57;102214.44;4738991;30;20388;-81
2022/07/18 03:40:56;;;;;;;6.82;4.18;;;;;;;14.79;63.34;102203.75;4769156;30;20107;-81
2022/07/18 03:43:22;;;;;;;8.05;4.00;;;;;;;14.75;64.03;102204.69;4724324;30;20151;-81
2022/07/18 03:45:47;;;;;;;15.77;4.40;;;;;;;14.76;64.72;102211.78;4753215;30;20043;-81
2022/07/18 03:48:13;;;;;;;11.38;3.75;;;;;;;14.69;64.00;102210.13;4724007;30;20506;-81
2022/07/18 03:50:39;;;;;;;7.80;4.18;;;;;;;14.72;65.25;102215.41;4723930;30;20508;-81
2022/07/18 03:53:04;;;;;;;8.25;4.00;;;;;;;14.70;65.38;102207.44;4742671;30;20028;-81
2022/07/18 03:55:30;;;;;;;8.68;4.10;;;;;;;14.71;64.92;102211.88;4738590;30;20054;-81
2022/07/18 03:57:55;;;;;;;9.85;4.57;;;;;;;14.67;64.56;102194.16;4738721;30;20051;-81
2022/07/18 04:00:21;;;;;;;12.00;4.20;;;;;;;14.70;65.29;102199.44;4738259;30;20052;-81
2022/07/18 04:02:47;;;;;;;10.98;4.30;;;;;;;14.69;64.39;102204.78;4738635;30;20035;-81
2022/07/18 04:05:14;;;;;;;7.20;4.43;;;;;;;14.68;65.01;102201.25;4738280;30;20044;-81
2022/07/18 04:07:40;;;;;;;9.85;4.55;;;;;;;14.71;64.66;102206.56;4726452;30;20105;-81
2022/07/18 04:10:08;;;;;;;9.52;4.50;;;;;;;14.74;64.82;102203.81;4734720;30;20052;-80
2022/07/18 04:12:34;;;;;;;6.78;4.07;;;;;;;14.76;65.04;102206.44;4738376;30;20537;-81
2022/07/18 04:14:59;;;;;;;8.90;4.18;;;;;;;14.75;65.13;102192.25;4738219;30;20118;-81
2022/07/18 04:17:25;;;;;;;12.52;5.07;;;;;;;14.79;64.78;102191.28;4738094;30;20036;-80
2022/07/18 04:19:51;;;;;;;13.57;4.97;;;;;;;14.83;64.07;102192.97;4753178;30;20051;-81
2022/07/18 04:22:16;;;;;;;8.75;4.68;;;;;;;14.87;64.50;102190.28;4738392;30;20051;-80
2022/07/18 04:24:42;;;;;;;10.52;4.43;;;;;;;14.87;61.72;102185.81;4752867;30;20542;-81
2022/07/18 04:27:07;;;;;;;8.70;4.40;;;;;;;14.89;63.41;102186.66;4751433;30;20370;-81
2022/07/18 04:29:33;;;;;;;10.93;5.07;;;;;;;14.96;63.19;102180.31;4741053;30;20067;-81
2022/07/18 04:31:58;;;;;;;11.60;4.90;;;;;;;14.98;64.44;102183.81;4723888;30;20028;-81
2022/07/18 04:34:24;;;;;;;9.73;4.85;;;;;;;15.01;64.08;102183.78;4737982;30;20051;-81
2022/07/18 04:36:50;;;;;;;9.73;4.93;;;;;;;15.04;63.20;102183.72;4727088;30;20119;-81
2022/07/18 04:39:16;;;;;;;9.63;4.60;;;;;;;15.08;63.53;102181.84;4752874;30;20126;-81
2022/07/18 04:41:43;;;;;;;10.10;4.93;;;;;;;15.11;63.73;102175.56;4740278;30;20058;-80
2022/07/18 04:44:09;;;;;;;16.80;5.35;;;;;;;15.11;64.04;102173.81;4742363;30;20043;-80
2022/07/18 04:46:34;;;;;;;13.30;5.82;;;;;;;15.16;63.70;102176.38;4754282;30;20155;-80
2022/07/18 04:49:00;;;;;;;10.93;5.45;;;;;;;15.16;64.06;102174.59;4737962;30;20059;-80
2022/07/18 04:51:26;;;;;;;8.50;5.03;;;;;;;15.19;63.43;102177.19;4768307;30;20115;-81
2022/07/18 04:53:54;;;;;;;8.88;5.13;;;;;;;15.22;63.30;102178.91;4706155;30;20482;-81
2022/07/18 04:56:20;;;;;;;11.43;5.32;;;;;;;15.25;63.90;102178.84;4720782;30;20048;-81
2022/07/18 04:58:46;;;;;;;13.65;4.82;;;;;;;15.29;63.61;102175.22;4738272;30;20447;-82
2022/07/18 05:01:11;;;;;;;14.95;5.30;;;;;;;15.36;62.91;102176.00;4738238;30;20048;-81
2022/07/18 05:03:37;;;;;;;8.93;5.13;;;;;;;15.44;62.24;102172.22;4725524;30;20059;-81
2022/07/18 05:06:02;;;;;;;10.77;5.38;;;;;;;15.50;62.63;102165.88;4708687;30;20377;-81
2022/07/18 05:08:28;;;;;;;11.82;4.55;;;;;;;15.64;62.44;102185.16;4738000;30;20085;-81
2022/07/18 05:10:53;;;;;;;14.40;5.63;;;;;;;15.75;61.52;102184.97;4752334;30;20373;-81
2022/07/18 05:13:19;;;;;;;8.65;4.72;;;;;;;15.84;60.14;102187.41;4723162;30;20084;-81
2022/07/18 05:15:44;;;;;;;10.50;4.60;;;;;;;15.95;61.40;102175.59;4752493;30;20040;-81
2022/07/18 05:18:10;;;;;;;10.43;4.85;;;;;;;16.08;61.21;102179.78;4737837;30;20046;-81
2022/07/18 05:20:35;;;;;;;10.50;5.53;;;;;;;16.23;60.57;102179.41;4737627;30;20067;-81
2022/07/18 05:23:01;;;;;;;14.18;5.30;;;;;;;16.33;60.38;102175.59;4737812;30;20568;-81
2022/07/18 05:25:26;;;;;;;18.40;5.55;;;;;;;16.49;59.58;102173.41;4752438;30;20423;-81
2022/07/18 05:27:52;;;;;;;13.07;5.22;;;;;;;16.62;58.91;102179.31;4737619;30;20056;-81
2022/07/18 05:30:19;;;;;;;15.10;5.57;;;;;;;16.70;57.89;102179.13;4752405;30;20076;-81
2022/07/18 05:32:45;;;;;;;23.13;5.80;;;;;;;16.79;58.47;102181.59;4751862;30;20143;-81
2022/07/18 05:35:11;;;;;;;20.30;5.40;;;;;;;16.91;57.54;102180.38;4752257;30;20059;-81
2022/07/18 05:37:38;;;;;;;10.60;5.38;;;;;;;16.96;56.26;102170.41;4752284;30;20047;-80
2022/07/18 05:40:06;;;;;;;16.58;5.22;;;;;;;17.07;56.10;102187.06;4741799;30;20038;-81
2022/07/18 05:42:31;;;;;;;9.82;5.00;;;;;;;17.14;56.08;102175.28;4760888;30;20059;-81
2022/07/18 05:44:57;;;;;;;11.18;5.20;;;;;;;17.25;55.57;102182.13;4754313;30;20031;-81
2022/07/18 05:47:22;;;;;;;8.88;5.00;;;;;;;17.34;54.65;102176.50;4741474;30;20062;-80
2022/07/18 05:49:48;;;;;;;14.13;4.80;;;;;;;17.45;56.17;102185.09;4740651;30;20051;-81
2022/07/18 05:52:13;;;;;;;12.27;5.18;;;;;;;17.56;55.32;102184.81;4741210;30;20086;-81
2022/07/18 05:54:39;;;;;;;12.02;4.75;;;;;;;17.69;54.88;102185.31;4748063;30;20186;-90
2022/07/18 05:57:05;;;;;;;10.02;4.88;;;;;;;17.83;55.06;102184.00;4728319;30;20040;-91
2022/07/18 05:59:30;;;;;;;27.77;6.25;;;;;;;17.94;55.01;102180.09;4752757;30;20044;-91
2022/07/18 06:01:56;;;;;;;24.05;5.75;;;;;;;18.03;54.80;102172.66;4735617;30;20070;-90
2022/07/18 06:04:22;;;;;;;12.68;5.55;;;;;;;18.15;54.04;102184.78;4712441;30;20051;-91
2022/07/18 06:06:49;;;;;;;19.88;6.22;;;;;;;18.24;53.60;102178.22;4726915;30;20489;-90
2022/07/18 06:09:16;;;;;;;12.40;5.00;;;;;;;18.35;53.27;102185.94;4755660;30;20032;-89
2022/07/18 06:11:42;;;;;;;18.55;5.82;;;;;;;18.42;53.80;102176.75;4740784;30;20613;-90
2022/07/18 06:14:07;;;;;;;15.40;5.93;;;;;;;18.51;52.96;102173.75;4755711;30;20047;-89
2022/07/18 06:16:33;;;;;;;13.02;5.80;;;;;;;18.61;52.81;102168.97;4737944;30;20221;-91
2022/07/18 06:18:58;;;;;;;15.25;5.40;;;;;;;18.68;52.57;102163.31;4725994;30;20046;-90
2022/07/18 06:21:24;;;;;;;11.50;4.57;;;;;;;18.79;52.76;102167.47;4726712;30;20040;-90
2022/07/18 06:23:50;;;;;;;13.38;5.88;;;;;;;18.95;52.71;102165.13;4725496;30;20058;-81
2022/07/18 06:26:15;;;;;;;14.48;5.97;;;;;;;19.07;52.52;102167.38;4740287;30;20113;-80
2022/07/18 06:28:41;;;;;;;11.77;5.88;;;;;;;19.21;52.68;102164.16;4740453;30;20437;-81
2022/07/18 06:31:07;;;;;;;10.48;5.68;;;;;;;19.25;51.01;102153.25;4740496;30;20043;-81
2022/07/18 06:33:35;;;;;;;15.55;6.13;;;;;;;19.39;51.82;102154.56;4755244;30;20048;-81
2022/07/18 06:36:00;;;;;;;10.13;5.78;;;;;;;19.52;51.94;102150.47;4754562;30;20113;-81
2022/07/18 06:38:26;;;;;;;12.35;6.35;;;;;;;19.63;51.38;102145.53;4705652;30;20032;-81
2022/07/18 06:40:51;;;;;;;15.07;6.32;;;;;;;19.76;51.33;102146.84;4730627;30;20048;-81
2022/07/18 06:43:19;;;;;;;19.65;6.40;;;;;;;19.85;51.69;102142.91;4723038;30;20044;-81
2022/07/18 06:45:46;;;;;;;22.25;6.90;;;;;;;20.01;51.50;102148.56;4754349;30;20122;-82
2022/07/18 06:48:13;;;;;;;12.88;6.38;;;;;;;20.11;50.64;102147.25;4737424;30;20048;-82
2022/07/18 06:50:39;;;;;;;17.80;6.03;;;;;;;20.23;51.17;102139.59;4730004;30;20299;-82
2022/07/18 06:53:04;;;;;;;13.23;6.32;;;;;;;20.34;51.07;102140.03;4750945;30;20055;-81
2022/07/18 06:55:30;;;;;;;15.80;6.07;;;;;;;20.50;50.94;102138.44;4751331;30;20048;-81
2022/07/18 06:57:55;;;;;;;12.38;6.00;;;;;;;20.67;50.60;102143.09;4704989;30;20040;-82
2022/07/18 07:00:21;;;;;;;8.70;5.90;;;;;;;20.80;50.05;102136.25;4753985;30;20432;-82
2022/07/18 07:02:48;;;;;;;21.73;6.50;;;;;;;20.86;48.95;102139.63;4744304;30;20047;-80
2022/07/18 07:05:17;;;;;;;9.48;6.47;;;;;;;20.93;49.25;102136.56;4752155;30;20051;-81
2022/07/18 07:07:43;;;;;;;17.25;6.45;;;;;;;21.03;49.07;102140.59;4770297;30;20499;-81
2022/07/18 07:10:09;;;;;;;23.77;6.28;;;;;;;21.19;48.42;102135.41;4739251;30;20051;-81
2022/07/18 07:12:43;;;;;;;13.75;5.93;;;;;;;21.30;48.12;102140.28;4751015;30;20051;-81
2022/07/18 07:15:09;;;;;;;19.73;5.53;;;;;;;21.46;48.60;102151.25;4736387;30;20069;-82
2022/07/18 07:17:36;;;;;;;18.38;6.00;;;;;;;21.60;48.25;102145.22;4728291;30;20451;-91
2022/07/18 07:20:04;;;;;;;15.10;6.32;;;;;;;21.74;47.35;102153.53;4754561;30;20087;-90
2022/07/18 07:22:29;;;;;;;15.77;5.93;;;;;;;21.90;46.80;102148.25;4754920;30;20043;-91
2022/07/18 07:24:55;;;;;;;21.33;5.72;;;;;;;22.02;46.13;102144.97;4733011;30;20557;-91
2022/07/18 07:27:20;;;;;;;16.58;5.30;;;;;;;22.15;45.73;102147.91;4745259;30;20068;-90
2022/07/18 07:29:46;;;;;;;11.88;5.13;;;;;;;22.21;46.14;102150.34;4752434;30;20058;-92
2022/07/18 07:32:11;;;;;;;15.38;5.45;;;;;;;22.31;46.33;102148.06;4731941;30;20402;-91
2022/07/18 07:34:37;;;;;;;12.65;5.38;;;;;;;22.42;45.71;102140.28;4734533;30;20114;-91
2022/07/18 07:37:02;;;;;;;16.63;5.90;;;;;;;22.59;46.71;102142.13;4726155;30;20035;-90
2022/07/18 07:39:30;;;;;;;12.48;5.95;;;;;;;22.72;46.42;102137.84;4740467;30;20484;-91
2022/07/18 07:41:56;;;;;;;18.17;5.90;;;;;;;22.82;45.28;102131.94;4740450;30;20047;-91
2022/07/18 07:44:21;;;;;;;13.60;5.47;;;;;;;22.91;44.22;102144.97;4737299;30;20478;-92
2022/07/18 07:46:47;;;;;;;17.02;5.03;;;;;;;22.99;44.68;102140.06;4726049;30;20046;-91
2022/07/18 07:49:12;;;;;;;12.32;4.60;;;;;;;23.12;43.94;102141.16;4736870;30;20048;-90
2022/07/18 07:51:38;;;;;;;15.27;5.18;;;;;;;23.31;44.46;102138.31;4725331;30;20112;-91
2022/07/18 07:54:05;;;;;;;18.85;5.85;;;;;;;23.39;43.31;102122.56;4742291;30;20044;-90
2022/07/18 07:56:31;;;;;;;14.57;4.95;;;;;;;23.52;43.25;102132.69;4730082;30;20482;-90
2022/07/18 07:58:56;;;;;;;20.77;5.05;;;;;;;23.64;43.23;102120.28;4724788;30;20048;-90
2022/07/18 08:01:22;;;;;;;17.70;4.50;;;;;;;23.74;43.09;102117.03;4739118;30;20050;-90
2022/07/18 08:03:49;;;;;;;13.98;4.57;;;;;;;23.89;43.79;102107.16;4739332;30;20038;-90
2022/07/18 08:06:15;;;;;;;11.63;4.57;;;;;;;23.99;43.25;102108.34;4754382;30;20063;-91
2022/07/18 08:08:41;;;;;;;16.17;4.97;;;;;;;24.08;43.83;102103.34;4724739;30;20127;-90
2022/07/18 08:11:06;;;;;;;13.95;4.65;;;;;;;24.22;44.26;102096.16;4745087;30;20122;-92
2022/07/18 08:13:32;;;;;;;14.90;5.07;;;;;;;24.34;43.90;102089.16;4753859;30;20101;-91
2022/07/18 08:15:57;;;;;;;15.40;4.90;;;;;;;24.41;43.04;102093.22;4736021;30;20126;-91
2022/07/18 08:18:23;;;;;;;22.42;4.70;;;;;;;24.49;42.11;102091.94;4726473;30;20492;-90
2022/07/18 08:20:49;;;;;;;9.55;4.05;;;;;;;24.64;42.97;102101.81;4755825;30;20441;-90
2022/07/18 08:23:16;;;;;;;11.23;4.07;;;;;;;24.81;42.96;102095.38;4768308;30;20039;-92
2022/07/18 08:25:44;;;;;;;16.50;4.25;;;;;;;24.97;40.96;102104.25;4756505;30;20031;-91
2022/07/18 08:28:10;;;;;;;12.77;3.50;;;;;;;25.08;40.05;102101.75;4741129;30;20067;-90
2022/07/18 08:30:37;;;;;;;13.32;3.05;;;;;;;25.20;40.36;102113.69;4739019;30;20043;-89
2022/07/18 08:33:03;;;;;;;14.90;3.50;;;;;;;25.35;40.54;102116.41;4738242;30;20069;-90
2022/07/18 08:35:31;;;;;;;10.55;3.03;;;;;;;25.51;38.94;102115.28;4738918;30;20028;-89
2022/07/18 08:37:58;;;;;;;9.60;3.03;;;;;;;25.62;36.88;102117.31;4753967;30;20122;-91
2022/07/18 08:40:24;;;;;;;13.15;2.92;;;;;;;25.83;37.55;102114.16;4739169;30;20038;-90
2022/07/18 08:42:51;;;;;;;10.88;2.83;;;;;;;25.94;36.05;102114.38;4743799;30;20134;-91
2022/07/18 08:45:21;;;;;;;7.85;2.45;;;;;;;25.92;33.38;102106.31;4763009;30;20114;-90
2022/07/18 08:47:47;;;;;;;10.23;2.78;;;;;;;26.03;35.05;102110.16;4742152;30;20050;-90
2022/07/18 08:50:13;;;;;;;14.15;2.70;;;;;;;26.03;35.76;102102.88;4707222;30;20040;-91
2022/07/18 08:52:39;;;;;;;5.20;2.45;;;;;;;26.21;33.98;102100.78;4721923;30;20055;-90
2022/07/18 08:55:07;;;;;;;8.25;2.55;;;;;;;26.34;34.91;102103.53;4737540;30;20040;-91
2022/07/18 08:57:36;;;;;;;10.48;2.47;;;;;;;26.47;35.39;102108.97;4770211;30;20096;-90
2022/07/18 09:00:06;;;;;;;19.20;2.88;;;;;;;26.63;34.53;102100.66;4739480;30;20032;-89
2022/07/18 09:02:32;;;;;;;8.82;2.20;;;;;;;26.71;34.11;102103.72;4739340;30;20096;-90
2022/07/18 09:05:01;;;;;;;7.30;2.40;;;;;;;26.85;34.40;102108.16;4739337;30;20059;-90
2022/07/18 09:07:34;;;;;;;12.60;2.22;;;;;;;26.87;33.92;102101.63;4739388;30;20048;-91
2022/07/18 09:10:03;;;;;;;12.52;2.50;;;;;;;27.07;33.86;102102.06;4739596;30;20039;-89
2022/07/18 09:12:31;;;;;;;9.07;2.38;;;;;;;27.24;33.06;102096.31;4753840;30;20115;-90
2022/07/18 09:15:04;;;;;;;8.57;2.35;;;;;;;27.43;33.58;102102.16;4740361;30;20130;-90
2022/07/18 09:17:29;;;;;;;6.70;2.42;;;;;;;27.49;32.82;102105.38;4749755;30;20043;-88
2022/07/18 09:19:56;;;;;;;6.10;2.00;;;;;;;27.60;32.43;102102.75;4733288;30;20059;-87
2022/07/18 09:22:24;;;;;;;5.05;2.03;;;;;;;27.77;32.80;102105.09;4737783;30;20051;-87
2022/07/18 09:24:56;;;;;;;5.45;2.28;;;;;;;27.90;31.94;102104.22;4740314;30;20043;-87
2022/07/18 09:27:24;;;;;;;6.30;2.20;;;;;;;28.01;31.82;102101.53;4723425;30;20039;-86
2022/07/18 09:30:07;;;;;;;12.50;2.63;;;;;;;28.08;32.80;102108.25;4750565;30;20473;-86
2022/07/18 09:32:34;;;;;;;6.85;2.10;;;;;;;28.05;31.75;102109.34;4756955;30;20587;-87
2022/07/18 09:35:16;;;;;;;5.50;2.15;;;;;;;28.08;32.13;102102.78;4741716;30;20139;-86
2022/07/18 09:37:54;;;;;;;4.85;2.20;;;;;;;28.34;32.60;102099.91;4737238;30;20131;-87
2022/07/18 09:40:23;;;;;;;12.00;2.20;;;;;;;28.48;30.66;102108.78;4743486;30;20044;-85
2022/07/18 09:42:53;;;;;;;7.07;2.00;;;;;;;28.59;31.12;102099.78;4751888;30;20071;-86
2022/07/18 09:45:42;;;;;;;8.68;1.92;;;;;;;28.75;30.95;102106.75;4741505;30;20038;-87
2022/07/18 09:48:13;;;;;;;6.32;2.00;;;;;;;28.80;31.26;102101.78;4756498;30;20531;-86
2022/07/18 09:51:01;;;;;;;7.60;2.58;;;;;;;28.85;31.56;102103.16;4741940;30;20047;-86
2022/07/18 09:53:32;;;;;;;13.85;2.58;;;;;;;28.86;30.31;102099.47;4740839;30;20500;-87
2022/07/18 09:56:11;;;;;;;6.80;2.65;;;;;;;28.91;30.34;102097.22;4745629;30;20043;-87
2022/07/18 09:58:42;;;;;;;8.38;2.10;;;;;;;29.10;30.60;102091.16;4756115;30;20043;-86
2022/07/18 10:01:09;;;;;;;15.48;2.65;;;;;;;29.22;30.69;102094.78;4756183;30;20055;-86
2022/07/18 10:03:35;;;;;;;7.70;1.90;;;;;;;29.45;30.27;102090.19;4741546;30;20020;-87
2022/07/18 10:06:03;;;;;;;13.52;2.80;;;;;;;29.60;28.98;102098.97;4729269;30;20431;-87
2022/07/18 10:08:31;;;;;;;17.35;2.50;;;;;;;29.57;30.19;102093.72;4754793;30;20338;-87
2022/07/18 10:11:01;;;;;;;12.85;2.55;;;;;;;29.52;30.71;102094.09;4740258;30;20190;-87
2022/07/18 10:13:28;;;;;;;16.25;2.38;;;;;;;29.47;30.10;102090.91;4740084;30;20139;-86
2022/07/18 10:15:54;;;;;;;13.95;2.55;;;;;;;29.76;30.54;102093.09;4767167;30;20043;-86
2022/07/18 10:18:22;;;;;;;9.70;2.67;;;;;;;30.04;29.77;102088.03;4755921;30;20485;-86
2022/07/18 10:21:19;;;;;;;12.45;2.92;;;;;;;30.09;28.23;102091.25;4755812;30;20054;-86
2022/07/18 10:23:47;;;;;;;17.67;2.40;;;;;;;30.14;28.42;102086.25;4742597;30;20087;-87
2022/07/18 10:26:24;;;;;;;13.57;2.00;;;;;;;30.10;28.62;102093.00;4771129;30;20055;-87
2022/07/18 10:28:55;;;;;;;13.02;2.70;;;;;;;30.11;28.82;102097.44;4750214;30;20199;-87
2022/07/18 10:31:26;;;;;;;16.25;2.00;;;;;;;30.26;28.98;102093.44;4754976;30;20048;-86
2022/07/18 10:33:53;;;;;;;11.60;2.40;;;;;;;30.26;28.23;102092.56;4755542;30;20048;-87
2022/07/18 10:36:21;;;;;;;14.52;2.45;;;;;;;30.26;30.81;102090.69;4740963;30;20076;-86
2022/07/18 10:39:07;;;;;;;15.50;2.45;;;;;;;30.47;29.73;102082.53;4763979;30;20048;-86
2022/07/18 10:41:54;;;;;;;12.05;2.70;;;;;;;30.79;29.76;102082.44;4769724;30;20044;-86
2022/07/18 10:44:31;;;;;;;8.35;2.38;;;;;;;31.02;29.00;102079.53;4729703;30;20055;-85
2022/07/18 10:47:03;;;;;;;11.88;2.78;;;;;;;31.04;29.51;102083.88;4752313;30;20265;-86
2022/07/18 10:49:52;;;;;;;10.98;2.63;;;;;;;30.99;29.16;102085.31;4759595;30;20127;-86
2022/07/18 10:52:35;;;;;;;9.50;2.67;;;;;;;31.04;29.27;102083.88;4765617;30;20036;-86
2022/07/18 10:55:04;;;;;;;14.20;2.40;;;;;;;30.96;28.65;102083.69;4766139;30;20063;-86
2022/07/18 10:57:40;;;;;;;14.55;2.92;;;;;;;30.93;29.62;102083.09;4748424;30;20040;-86
2022/07/18 11:00:08;;;;;;;12.98;2.55;;;;;;;31.00;31.22;102078.81;4761300;30;20155;-84
2022/07/18 11:02:44;;;;;;;19.45;3.05;;;;;;;31.28;30.06;102072.59;4759932;30;20724;-84
2022/07/18 11:05:25;;;;;;;7.32;2.20;;;;;;;31.51;29.11;102077.88;4735601;30;20044;-85
2022/07/18 11:08:02;;;;;;;13.48;2.42;;;;;;;31.44;29.07;102074.81;4735499;30;20505;-86
2022/07/18 11:13:24;;;;;;;8.05;2.65;;;;;;;31.95;29.03;102072.03;4748162;30;20147;-84
2022/07/18 11:16:10;;;;;;;6.68;2.10;;;;;;;32.13;28.12;102068.44;4761575;30;20042;-86
2022/07/18 11:18:42;;;;;;;7.47;2.15;;;;;;;31.97;28.87;102070.88;4760686;30;20036;-86
2022/07/18 11:21:30;;;;;;;10.18;2.50;;;;;;;32.06;27.97;102069.16;4751030;30;20040;-86
2022/07/18 11:24:07;;;;;;;6.57;2.08;;;;;;;32.31;28.21;102056.72;4746599;30;20382;-84
2022/07/18 11:26:38;;;;;;;7.20;2.00;;;;;;;32.65;28.11;102056.25;4746466;30;20039;-84
2022/07/18 11:29:07;;;;;;;5.00;2.20;;;;;;;32.85;27.15;102055.16;4739905;30;20059;-83